Time;durP1;ratioP1;P1;durP2;ratioP2;P2;SDS_P1;SDS_P2;PMS_P1;PMS_P2;Temp;Humidity;BMP_temperature;BMP_pressure;BME280_temperature;BME280_humidity;BME280_pressure;Samples;Min_cycle;Max_cycle;Signal;HPM_P1;HPM_P2
2021/06/26 00:00:59;;;;;;;;;;;;;;;20.42;81.35;99446.72;5071905;28;870;-56
2021/06/26 00:03:27;;;;;;;;;;;;;;;20.44;81.48;99443.41;5072007;28;798;-56
2021/06/26 00:05:54;;;;;;;;;;;;;;;20.45;81.50;99442.94;5071925;28;967;-55
2021/06/26 00:08:21;;;;;;;;;;;;;;;20.50;82.04;99439.47;5071816;28;1886;-56
2021/06/26 00:10:48;;;;;;;;;;;;;;;20.59;82.17;99433.81;5071889;28;825;-56
2021/06/26 00:13:15;;;;;;;;;;;;;;;20.72;82.11;99435.59;5072218;28;1051;-56
2021/06/26 00:15:41;;;;;;;;;;;;;;;20.80;82.24;99431.13;5071613;28;1192;-55
2021/06/26 00:18:08;;;;;;;;;;;;;;;20.88;82.37;99431.53;5072053;28;904;-56
2021/06/26 00:20:35;;;;;;;;;;;;;;;20.88;82.45;99415.47;5071771;28;853;-56
2021/06/26 00:23:02;;;;;;;;;;;;;;;20.86;82.55;99417.97;5070699;28;948;-56
2021/06/26 00:25:28;;;;;;;;;;;;;;;20.84;82.84;99420.50;5071740;28;834;-56
2021/06/26 00:27:54;;;;;;;;;;;;;;;20.87;82.70;99408.31;5071663;28;833;-56
2021/06/26 00:30:21;;;;;;;;;;;;;;;20.91;82.70;99403.28;5071800;28;1979;-56
2021/06/26 00:32:48;;;;;;;;;;;;;;;20.94;82.77;99405.09;5071545;28;904;-56
2021/06/26 00:35:15;;;;;;;;;;;;;;;20.97;82.43;99394.94;5071590;28;818;-56
2021/06/26 00:37:42;;;;;;;;;;;;;;;20.91;82.34;99392.03;5087085;28;1527;-56
2021/06/26 00:40:10;;;;;;;;;;;;;;;20.78;82.04;99405.56;5071692;28;811;-56
2021/06/26 00:42:38;;;;;;;;;;;;;;;20.59;82.31;99405.75;5071396;28;961;-56
2021/06/26 00:45:05;;;;;;;;;;;;;;;20.42;82.41;99403.81;5071489;28;885;-56
2021/06/26 00:47:32;;;;;;;;;;;;;;;20.29;82.54;99418.91;5071372;28;896;-56
2021/06/26 00:49:58;;;;;;;;;;;;;;;20.23;82.80;99411.59;5071385;28;1956;-56
2021/06/26 00:52:25;;;;;;;;;;;;;;;20.22;83.14;99410.84;5086705;28;1249;-56
2021/06/26 00:54:52;;;;;;;;;;;;;;;20.23;83.08;99408.81;5071420;28;886;-57
2021/06/26 00:57:19;;;;;;;;;;;;;;;20.22;83.09;99404.47;5071674;28;889;-57
2021/06/26 00:59:48;;;;;;;;;;;;;;;20.22;83.33;99407.25;5071364;28;818;-57
2021/06/26 01:02:15;;;;;;;;;;;;;;;20.23;83.20;99398.38;5071320;28;956;-57
2021/06/26 01:04:42;;;;;;;;;;;;;;;20.26;83.33;99407.84;5071285;28;920;-57
2021/06/26 01:07:08;;;;;;;;;;;;;;;20.28;83.48;99396.94;5071215;28;861;-57
2021/06/26 01:09:35;;;;;;;;;;;;;;;20.29;83.50;99392.84;5071267;28;1951;-56
2021/06/26 01:12:01;;;;;;;;;;;;;;;20.28;83.60;99396.94;5071408;28;951;-57
2021/06/26 01:14:28;;;;;;;;;;;;;;;20.27;83.35;99392.56;5071079;28;1198;-56
2021/06/26 01:16:56;;;;;;;;;;;;;;;20.25;83.36;99381.03;5071299;28;861;-56
2021/06/26 01:19:22;;;;;;;;;;;;;;;20.24;83.53;99379.50;5086589;28;1438;-56
2021/06/26 01:21:54;;;;;;;;;;;;;;;20.20;83.59;99374.06;5071004;28;810;-56
2021/06/26 01:24:21;;;;;;;;;;;;;;;20.20;83.71;99371.25;5071394;28;889;-56
2021/06/26 01:26:54;;;;;;;;;;;;;;;20.19;83.64;99375.34;5069908;28;906;-56
2021/06/26 01:29:21;;;;;;;;;;;;;;;20.15;83.74;99371.94;5070911;28;1978;-56
2021/06/26 01:31:47;;;;;;;;;;;;;;;20.10;83.96;99369.78;5069662;28;1338;-56
2021/06/26 01:34:14;;;;;;;;;;;;;;;20.06;84.18;99374.81;5071576;28;830;-56
2021/06/26 01:36:41;;;;;;;;;;;;;;;20.04;84.34;99371.72;5074663;28;830;-56
2021/06/26 01:39:08;;;;;;;;;;;;;;;20.03;84.47;99373.72;5074739;28;814;-56
2021/06/26 01:41:34;;;;;;;;;;;;;;;20.03;84.58;99382.13;5074614;28;881;-56
2021/06/26 01:44:01;;;;;;;;;;;;;;;20.03;84.76;99384.16;5074579;28;862;-56
2021/06/26 01:46:28;;;;;;;;;;;;;;;20.03;84.89;99379.31;5074558;28;814;-53
2021/06/26 01:49:04;;;;;;;;;;;;;;;20.03;84.68;99375.75;5074694;28;1889;-51
2021/06/26 01:51:32;;;;;;;;;;;;;;;20.01;84.63;99369.84;5074430;28;806;-54
2021/06/26 01:53:59;;;;;;;;;;;;;;;20.00;85.06;99369.06;5074711;28;893;-54
2021/06/26 01:56:25;;;;;;;;;;;;;;;20.01;85.12;99370.63;5074346;28;908;-53
2021/06/26 01:58:52;;;;;;;;;;;;;;;20.05;85.03;99370.44;5074283;28;969;-54
2021/06/26 02:01:19;;;;;;;;;;;;;;;20.08;85.00;99367.47;5074464;28;868;-54
2021/06/26 02:03:46;;;;;;;;;;;;;;;20.11;84.88;99372.09;5074225;28;830;-53
2021/06/26 02:06:13;;;;;;;;;;;;;;;20.12;84.95;99390.50;5074223;28;901;-54
2021/06/26 02:08:39;;;;;;;;;;;;;;;20.14;84.94;99396.41;5074046;28;1952;-55
2021/06/26 02:11:06;;;;;;;;;;;;;;;20.15;84.98;99402.78;5074198;28;1119;-53
2021/06/26 02:13:33;;;;;;;;;;;;;;;20.15;85.13;99406.38;5073820;28;1222;-54
2021/06/26 02:15:59;;;;;;;;;;;;;;;20.23;85.29;99406.00;5074102;28;838;-54
2021/06/26 02:18:26;;;;;;;;;;;;;;;20.34;85.33;99409.81;5073989;28;795;-54
2021/06/26 02:20:52;;;;;;;;;;;;;;;20.44;85.06;99404.91;5089473;28;1603;-54
2021/06/26 02:23:19;;;;;;;;;;;;;;;20.49;85.02;99401.44;5073888;28;823;-53
2021/06/26 02:25:45;;;;;;;;;;;;;;;20.49;84.78;99389.44;5073920;28;854;-54
2021/06/26 02:28:12;;;;;;;;;;;;;;;20.46;84.68;99394.00;5073917;28;822;-54
2021/06/26 02:30:37;;;;;;;;;;;;;;;20.46;84.78;99396.78;5073909;28;1894;-53
2021/06/26 02:33:04;;;;;;;;;;;;;;;20.44;84.71;99402.13;5073886;28;841;-54
2021/06/26 02:35:31;;;;;;;;;;;;;;;20.42;84.55;99417.88;5074338;28;834;-53
2021/06/26 02:37:58;;;;;;;;;;;;;;;20.43;84.94;99425.03;5074040;28;766;-51
2021/06/26 02:40:24;;;;;;;;;;;;;;;20.37;84.86;99425.69;5074267;28;1594;-53
2021/06/26 02:42:51;;;;;;;;;;;;;;;20.28;84.75;99427.81;5073533;28;857;-54
2021/06/26 02:45:17;;;;;;;;;;;;;;;20.20;84.66;99418.97;5073325;28;802;-52
2021/06/26 02:47:44;;;;;;;;;;;;;;;20.11;84.71;99424.63;5088296;28;753;-54
2021/06/26 02:50:11;;;;;;;;;;;;;;;20.02;84.93;99435.91;5073151;28;1886;-54
2021/06/26 02:52:37;;;;;;;;;;;;;;;19.95;85.32;99448.25;5073387;28;811;-53
2021/06/26 02:55:05;;;;;;;;;;;;;;;19.92;85.39;99449.97;5073229;28;861;-53
2021/06/26 02:57:31;;;;;;;;;;;;;;;19.96;85.46;99447.00;5073478;28;913;-54
2021/06/26 02:59:58;;;;;;;;;;;;;;;20.04;85.56;99439.03;5073237;28;790;-54
2021/06/26 03:02:26;;;;;;;;;;;;;;;20.04;85.39;99439.81;5073123;28;849;-53
2021/06/26 03:04:53;;;;;;;;;;;;;;;20.02;85.47;99439.50;5073290;28;909;-54
2021/06/26 03:07:20;;;;;;;;;;;;;;;20.03;85.58;99435.44;5072981;28;984;-53
2021/06/26 03:09:46;;;;;;;;;;;;;;;20.04;85.43;99433.41;5072937;28;1922;-53
2021/06/26 03:12:12;;;;;;;;;;;;;;;20.04;85.53;99428.56;5073171;28;938;-53
2021/06/26 03:14:38;;;;;;;;;;;;;;;20.09;85.53;99433.53;5072520;28;1201;-53
2021/06/26 03:17:05;;;;;;;;;;;;;;;20.15;85.49;99422.44;5072995;28;814;-53
2021/06/26 03:19:32;;;;;;;;;;;;;;;20.22;85.53;99435.31;5054747;28;889;-54
2021/06/26 03:21:59;;;;;;;;;;;;;;;20.28;85.44;99430.59;5072723;28;885;-54
2021/06/26 03:24:27;;;;;;;;;;;;;;;20.36;85.56;99426.19;5072997;28;900;-53
2021/06/26 03:26:55;;;;;;;;;;;;;;;20.43;85.41;99420.19;5072507;28;919;-52
2021/06/26 03:29:23;;;;;;;;;;;;;;;20.51;85.28;99421.38;5072560;28;1977;-52
2021/06/26 03:31:49;;;;;;;;;;;;;;;20.57;84.98;99422.31;5072534;28;853;-53
2021/06/26 03:34:16;;;;;;;;;;;;;;;20.66;84.83;99426.28;5072450;28;886;-54
2021/06/26 03:36:42;;;;;;;;;;;;;;;20.76;84.64;99428.53;5072434;28;930;-54
2021/06/26 03:39:09;;;;;;;;;;;;;;;20.89;84.42;99427.47;5072422;28;838;-54
2021/06/26 03:41:36;;;;;;;;;;;;;;;21.05;84.12;99429.81;5072353;28;786;-54
2021/06/26 03:44:03;;;;;;;;;;;;;;;21.27;83.66;99426.59;5072249;28;862;-54
2021/06/26 03:46:29;;;;;;;;;;;;;;;21.48;83.18;99432.34;5072483;28;807;-54
2021/06/26 03:48:56;;;;;;;;;;;;;;;21.68;82.33;99429.59;5072150;28;1886;-55
2021/06/26 03:51:24;;;;;;;;;;;;;;;21.82;81.94;99428.75;5072023;28;862;-54
2021/06/26 03:53:51;;;;;;;;;;;;;;;21.94;81.06;99440.19;5072067;28;869;-55
2021/06/26 03:56:17;;;;;;;;;;;;;;;22.10;80.78;99445.25;5072047;28;814;-55
2021/06/26 03:58:44;;;;;;;;;;;;;;;22.26;80.63;99437.59;5071970;28;873;-55
2021/06/26 04:01:11;;;;;;;;;;;;;;;22.42;80.23;99426.53;5071983;28;866;-55
2021/06/26 04:03:38;;;;;;;;;;;;;;;22.54;79.52;99421.78;5071974;28;806;-55
2021/06/26 04:06:04;;;;;;;;;;;;;;;22.67;79.45;99410.16;5071963;28;849;-55
2021/06/26 04:08:31;;;;;;;;;;;;;;;22.78;78.96;99406.69;5071802;28;1909;-55
2021/06/26 04:10:58;;;;;;;;;;;;;;;22.79;78.97;99406.19;5071944;28;897;-55
2021/06/26 04:13:25;;;;;;;;;;;;;;;22.87;78.37;99400.88;5071503;28;1181;-55
2021/06/26 04:15:51;;;;;;;;;;;;;;;22.98;77.83;99403.81;5072067;28;822;-55
2021/06/26 04:18:18;;;;;;;;;;;;;;;23.17;77.85;99406.31;5071810;28;803;-56
2021/06/26 04:20:45;;;;;;;;;;;;;;;23.39;77.13;99400.84;5071707;28;814;-55
2021/06/26 04:23:11;;;;;;;;;;;;;;;23.54;76.93;99408.41;5070586;28;806;-55
2021/06/26 04:25:37;;;;;;;;;;;;;;;23.71;75.91;99412.09;5071704;28;908;-54
2021/06/26 04:28:08;;;;;;;;;;;;;;;23.81;75.23;99421.94;5071603;28;972;-55
2021/06/26 04:30:35;;;;;;;;;;;;;;;23.84;74.89;99432.22;5071533;28;1914;-56
2021/06/26 04:33:02;;;;;;;;;;;;;;;23.95;74.71;99430.75;5071573;28;837;-56
2021/06/26 04:35:29;;;;;;;;;;;;;;;23.97;74.85;99433.84;5071558;28;836;-55
2021/06/26 04:37:56;;;;;;;;;;;;;;;24.08;74.75;99430.31;5071572;28;835;-54
2021/06/26 04:40:22;;;;;;;;;;;;;;;24.22;74.47;99423.72;5071747;28;849;-54
2021/06/26 04:42:49;;;;;;;;;;;;;;;24.32;74.56;99432.72;5071476;28;866;-55
2021/06/26 04:45:16;;;;;;;;;;;;;;;24.41;74.59;99441.75;5071504;28;885;-55
2021/06/26 04:47:42;;;;;;;;;;;;;;;24.64;74.47;99464.44;5086934;28;1291;-55
2021/06/26 04:50:10;;;;;;;;;;;;;;;25.08;73.58;99471.50;5071251;28;1937;-55
2021/06/26 04:52:38;;;;;;;;;;;;;;;25.49;72.47;99478.78;5071410;28;959;-55
2021/06/26 04:55:05;;;;;;;;;;;;;;;25.75;70.97;99482.09;5071340;28;810;-56
2021/06/26 04:57:32;;;;;;;;;;;;;;;26.34;69.04;99476.63;5071384;28;846;-56
2021/06/26 04:59:59;;;;;;;;;;;;;;;27.00;67.48;99474.03;5071306;28;862;-56
2021/06/26 05:02:26;;;;;;;;;;;;;;;27.49;64.88;99489.16;5071264;28;971;-56
2021/06/26 05:04:53;;;;;;;;;;;;;;;27.48;64.92;99472.66;5071280;28;877;-56
2021/06/26 05:12:29;;;;;;;;;;;;;;;28.10;63.13;99392.56;5906445;22;1679;-56
2021/06/26 05:14:55;;;;;;;;;;;;;;;29.92;58.67;99390.06;5075911;28;885;-56
2021/06/26 05:17:21;;;;;;;;;;;;;;;31.17;54.75;99415.91;5075264;28;893;-56
2021/06/26 05:19:47;;;;;;;;;;;;;;;31.29;54.44;99448.56;5075162;28;842;-57
2021/06/26 05:22:14;;;;;;;;;;;;;;;30.79;52.78;99491.19;5074994;28;822;-57
2021/06/26 05:24:40;;;;;;;;;;;;;;;29.97;53.23;99495.91;5075020;28;806;-57
2021/06/26 05:27:08;;;;;;;;;;;;;;;29.15;55.15;99487.66;5074977;28;889;-56
2021/06/26 05:29:39;;;;;;;;;;;;;;;28.46;58.11;99486.16;5074691;28;1975;-56
2021/06/26 05:32:07;;;;;;;;;;;;;;;27.95;60.43;99474.59;5074879;28;897;-54
2021/06/26 05:34:33;;;;;;;;;;;;;;;27.58;61.69;99456.09;5074854;28;818;-56
2021/06/26 05:37:00;;;;;;;;;;;;;;;27.23;62.96;99440.63;5074880;28;866;-56
2021/06/26 05:39:26;;;;;;;;;;;;;;;26.91;63.64;99443.91;5074957;28;861;-56
2021/06/26 05:41:52;;;;;;;;;;;;;;;26.66;64.77;99443.78;5074843;28;837;-56
2021/06/26 05:44:19;;;;;;;;;;;;;;;26.44;65.23;99443.88;5074760;28;803;-56
2021/06/26 05:46:46;;;;;;;;;;;;;;;26.19;66.55;99449.38;5075296;28;841;-56
2021/06/26 05:49:12;;;;;;;;;;;;;;;25.93;67.51;99466.69;5074718;28;1984;-56
2021/06/26 05:51:39;;;;;;;;;;;;;;;25.74;67.32;99488.31;5074690;28;806;-56
2021/06/26 05:54:05;;;;;;;;;;;;;;;25.57;67.42;99499.63;5074700;28;853;-56
2021/06/26 05:56:32;;;;;;;;;;;;;;;25.41;67.61;99507.59;5074393;28;783;-56
2021/06/26 05:59:00;;;;;;;;;;;;;;;25.30;66.31;99513.22;5074337;28;844;-56
2021/06/26 06:01:27;;;;;;;;;;;;;;;25.20;65.76;99517.56;5074220;28;886;-56
2021/06/26 06:03:54;;;;;;;;;;;;;;;25.10;65.57;99519.06;5074192;28;949;-55
2021/06/26 06:06:21;;;;;;;;;;;;;;;24.97;66.07;99523.16;5074107;28;866;-56
2021/06/26 06:08:46;;;;;;;;;;;;;;;24.85;65.89;99502.53;5074160;28;1894;-56
2021/06/26 06:11:13;;;;;;;;;;;;;;;24.79;65.69;99510.25;5074056;28;822;-56
2021/06/26 06:13:40;;;;;;;;;;;;;;;24.76;65.75;99499.19;5052616;28;1482;-55
2021/06/26 06:16:06;;;;;;;;;;;;;;;24.73;65.86;99503.00;5054266;28;838;-55
2021/06/26 06:18:33;;;;;;;;;;;;;;;24.67;66.39;99507.91;5054051;28;869;-55
2021/06/26 06:21:00;;;;;;;;;;;;;;;24.60;66.76;99524.03;5052912;28;834;-55
2021/06/26 06:23:26;;;;;;;;;;;;;;;24.53;66.68;99554.81;5053934;28;932;-55
2021/06/26 06:25:54;;;;;;;;;;;;;;;24.38;67.89;99560.59;5053781;28;806;-55
2021/06/26 06:28:21;;;;;;;;;;;;;;;24.25;68.57;99558.97;5069283;28;946;-55
2021/06/26 06:30:48;;;;;;;;;;;;;;;24.21;69.62;99518.16;5053696;28;1902;-54
2021/06/26 06:33:15;;;;;;;;;;;;;;;24.17;69.32;99498.59;5054027;28;905;-55
2021/06/26 06:35:42;;;;;;;;;;;;;;;24.15;70.20;99489.88;5053615;28;880;-56
2021/06/26 06:38:08;;;;;;;;;;;;;;;24.11;70.85;99499.84;5053637;28;850;-56
2021/06/26 06:40:35;;;;;;;;;;;;;;;24.04;70.84;99512.38;5053573;28;822;-55
2021/06/26 06:43:02;;;;;;;;;;;;;;;24.02;71.16;99517.75;5052232;28;1155;-55
2021/06/26 06:45:28;;;;;;;;;;;;;;;23.94;71.79;99536.44;5053752;28;846;-55
2021/06/26 06:47:55;;;;;;;;;;;;;;;23.84;72.81;99541.50;5053447;28;790;-55
2021/06/26 06:50:21;;;;;;;;;;;;;;;23.71;73.05;99543.94;5053363;28;1886;-55
2021/06/26 06:52:47;;;;;;;;;;;;;;;23.64;73.79;99540.28;5053387;28;826;-55
2021/06/26 06:55:14;;;;;;;;;;;;;;;23.62;73.70;99545.66;5053495;28;924;-54
2021/06/26 06:57:40;;;;;;;;;;;;;;;23.58;74.14;99555.63;5053453;28;1028;-54
2021/06/26 07:00:08;;;;;;;;;;;;;;;23.54;74.24;99569.16;5053342;28;818;-55
2021/06/26 07:02:35;;;;;;;;;;;;;;;23.54;73.72;99584.03;5053220;28;806;-55
2021/06/26 07:05:02;;;;;;;;;;;;;;;23.49;73.58;99590.38;5053207;28;814;-55
2021/06/26 07:07:28;;;;;;;;;;;;;;;23.29;73.94;99599.66;5053134;28;920;-56
2021/06/26 07:09:55;;;;;;;;;;;;;;;23.05;75.24;99599.13;5053010;28;1949;-57
2021/06/26 07:12:22;;;;;;;;;;;;;;;22.84;77.22;99611.13;5053038;28;1597;-57
2021/06/26 07:14:49;;;;;;;;;;;;;;;22.65;78.60;99609.09;5072062;28;1282;-58
2021/06/26 07:17:15;;;;;;;;;;;;;;;22.49;79.01;99599.13;5072833;28;873;-58
2021/06/26 07:19:41;;;;;;;;;;;;;;;22.51;80.01;99605.84;5072786;28;963;-55
2021/06/26 07:22:08;;;;;;;;;;;;;;;23.00;77.57;99597.75;5072833;28;810;-66
2021/06/26 07:24:35;;;;;;;;;;;;;;;22.43;78.21;99587.78;5072693;28;810;-65
2021/06/26 07:27:02;;;;;;;;;;;;;;;21.81;79.20;99578.34;5072678;28;865;-64
2021/06/26 07:29:29;;;;;;;;;;;;;;;21.31;80.38;99570.53;5072598;28;1911;-63
2021/06/26 07:31:55;;;;;;;;;;;;;;;20.95;81.54;99555.56;5072185;28;866;-62
2021/06/26 07:34:22;;;;;;;;;;;;;;;20.75;82.55;99541.34;5072415;28;900;-62
2021/06/26 07:36:48;;;;;;;;;;;;;;;20.60;83.25;99539.25;5072527;28;834;-62
2021/06/26 07:39:15;;;;;;;;;;;;;;;20.55;84.09;99542.69;5072446;28;841;-64
2021/06/26 07:41:42;;;;;;;;;;;;;;;20.54;84.52;99534.75;5072228;28;795;-63
2021/06/26 07:44:08;;;;;;;;;;;;;;;20.47;85.05;99530.25;5072354;28;882;-63
2021/06/26 07:46:34;;;;;;;;;;;;;;;20.43;85.69;99537.31;5072265;28;858;-63
2021/06/26 07:49:01;;;;;;;;;;;;;;;20.33;85.90;99534.56;5072092;28;1894;-62
2021/06/26 07:51:27;;;;;;;;;;;;;;;20.14;86.24;99519.06;5072494;28;822;-62
2021/06/26 07:53:54;;;;;;;;;;;;;;;19.95;86.71;99515.56;5072134;28;861;-61
2021/06/26 07:56:20;;;;;;;;;;;;;;;19.78;86.87;99513.16;5072181;28;893;-62
2021/06/26 07:58:47;;;;;;;;;;;;;;;19.64;87.56;99505.38;5072183;28;799;-62
2021/06/26 08:01:14;;;;;;;;;;;;;;;19.65;87.94;99504.13;5072052;28;858;-62
2021/06/26 08:03:40;;;;;;;;;;;;;;;19.78;88.17;99504.75;5072005;28;845;-60
2021/06/26 08:06:07;;;;;;;;;;;;;;;19.92;88.21;99511.69;5071931;28;814;-61
2021/06/26 08:08:33;;;;;;;;;;;;;;;19.97;88.09;99505.44;5071928;28;877;-60
2021/06/26 08:11:00;;;;;;;;;;;;;;;19.87;87.94;99489.13;5071845;28;1950;-59
2021/06/26 08:13:29;;;;;;;;;;;;;;;19.71;88.11;99471.41;5071600;28;1369;-58
2021/06/26 08:15:56;;;;;;;;;;;;;;;19.66;88.50;99465.66;5071826;28;886;-59
2021/06/26 08:18:22;;;;;;;;;;;;;;;19.75;88.78;99451.63;5071730;28;973;-59
2021/06/26 08:20:49;;;;;;;;;;;;;;;19.90;88.62;99443.31;5071688;28;837;-59
2021/06/26 08:23:15;;;;;;;;;;;;;;;20.03;88.44;99438.22;5071831;28;873;-58
2021/06/26 08:25:42;;;;;;;;;;;;;;;20.07;88.22;99433.22;5071873;28;862;-58
2021/06/26 08:28:08;;;;;;;;;;;;;;;20.05;88.20;99416.09;5071849;28;881;-58
2021/06/26 08:30:35;;;;;;;;;;;;;;;20.01;88.27;99395.09;5071761;28;1918;-58
2021/06/26 08:33:02;;;;;;;;;;;;;;;20.02;88.66;99388.25;5071845;28;932;-57
2021/06/26 08:35:29;;;;;;;;;;;;;;;20.02;88.48;99380.59;5072162;28;851;-57
2021/06/26 08:37:55;;;;;;;;;;;;;;;19.97;88.49;99356.00;5071746;28;838;-57
2021/06/26 08:40:23;;;;;;;;;;;;;;;19.93;88.54;99333.00;5072074;28;910;-57
2021/06/26 08:42:50;;;;;;;;;;;;;;;19.94;88.75;99331.72;5071636;28;850;-58
2021/06/26 08:45:18;;;;;;;;;;;;;;;19.94;88.81;99334.53;5071191;28;754;-58
2021/06/26 08:47:52;;;;;;;;;;;;;;;19.89;88.86;99354.81;5071601;28;909;-57
2021/06/26 08:50:19;;;;;;;;;;;;;;;19.98;89.10;99319.06;5053435;28;1957;-58
2021/06/26 08:52:46;;;;;;;;;;;;;;;20.13;89.17;99274.22;5053527;28;1180;-58
2021/06/26 08:55:12;;;;;;;;;;;;;;;20.25;88.85;99282.84;5071417;28;864;-58
2021/06/26 08:57:39;;;;;;;;;;;;;;;20.30;88.51;99296.22;5071451;28;877;-57
2021/06/26 09:00:12;;;;;;;;;;;;;;;20.40;88.35;99300.47;5071293;28;1166;-58
2021/06/26 09:02:38;;;;;;;;;;;;;;;20.51;87.61;99283.06;5071382;28;806;-58
2021/06/26 09:05:05;;;;;;;;;;;;;;;20.67;86.68;99293.06;5071392;28;822;-58
2021/06/26 09:07:33;;;;;;;;;;;;;;;20.90;86.43;99325.09;5071293;28;916;-58
2021/06/26 09:10:22;;;;;;;;;;;;;;;21.33;86.60;99343.16;5070984;28;1890;-58
2021/06/26 09:12:50;;;;;;;;;;;;;;;21.78;84.28;99355.06;5071105;28;1192;-59
2021/06/26 09:15:26;;;;;;;;;;;;;;;22.07;81.81;99375.13;5071211;28;936;-59
2021/06/26 09:17:54;;;;;;;;;;;;;;;21.76;77.45;99380.13;5071087;28;924;-59
2021/06/26 09:20:31;;;;;;;;;;;;;;;21.58;77.96;99377.53;5071205;28;889;-59
2021/06/26 09:22:58;;;;;;;;;;;;;;;21.85;79.30;99393.28;5071253;28;802;-60
2021/06/26 09:25:28;;;;;;;;;;;;;;;22.40;79.11;99415.00;5071139;28;826;-60
2021/06/26 09:27:58;;;;;;;;;;;;;;;22.84;78.56;99430.06;5053132;28;1573;-61
2021/06/26 09:30:36;;;;;;;;;;;;;;;23.12;79.90;99427.53;5071139;28;1934;-62
2021/06/26 09:33:13;;;;;;;;;;;;;;;23.49;79.60;99414.75;5070943;28;822;-62
2021/06/26 09:35:40;;;;;;;;;;;;;;;23.76;79.51;99422.66;5053006;28;1363;-63
2021/06/26 09:38:08;;;;;;;;;;;;;;;23.75;79.10;99415.47;5071254;28;837;-63
2021/06/26 09:40:36;;;;;;;;;;;;;;;23.59;78.86;99407.66;5071117;28;877;-64
2021/06/26 09:43:03;;;;;;;;;;;;;;;23.34;78.79;99406.44;5071137;28;802;-65
2021/06/26 09:45:30;;;;;;;;;;;;;;;23.17;79.26;99417.56;5071155;28;877;-65
2021/06/26 09:48:02;;;;;;;;;;;;;;;23.07;79.62;99430.31;5071134;28;858;-66
2021/06/26 09:50:29;;;;;;;;;;;;;;;23.07;79.26;99427.50;5070787;28;1890;-66
2021/06/26 09:52:57;;;;;;;;;;;;;;;23.17;79.08;99424.00;5070849;28;965;-66
2021/06/26 09:55:30;;;;;;;;;;;;;;;23.50;79.62;99416.31;5053631;28;1314;-66
2021/06/26 09:57:58;;;;;;;;;;;;;;;23.95;78.51;99427.94;5074412;28;790;-65
2021/06/26 10:00:27;;;;;;;;;;;;;;;24.30;78.74;99421.16;5074410;28;940;-64
2021/06/26 10:02:54;;;;;;;;;;;;;;;24.65;78.24;99421.56;5074280;28;806;-65
2021/06/26 10:05:22;;;;;;;;;;;;;;;25.04;77.99;99423.69;5074314;28;818;-64
2021/06/26 10:20:25;;;;;;;;;;;;;;;27.70;72.00;99420.63;5069912;28;1188;-64
2021/06/26 10:22:59;;;;;;;;;;;;;;;28.34;69.85;99416.59;5073913;28;814;-64
2021/06/26 10:25:37;;;;;;;;;;;;;;;28.85;68.80;99411.00;5073836;28;884;-64
2021/06/26 10:28:17;;;;;;;;;;;;;;;29.01;69.38;99409.97;5073864;28;842;-63
2021/06/26 10:31:00;;;;;;;;;;;;;;;29.65;68.57;99409.19;5073745;28;1977;-63
2021/06/26 10:33:28;;;;;;;;;;;;;;;30.26;66.11;99408.56;5073973;28;917;-64
2021/06/26 10:35:55;;;;;;;;;;;;;;;30.31;64.81;99413.41;5073683;28;814;-65
2021/06/26 10:38:22;;;;;;;;;;;;;;;30.59;66.65;99414.91;5073542;28;818;-66
2021/06/26 10:40:54;;;;;;;;;;;;;;;30.85;66.09;99411.19;5073661;28;831;-66
2021/06/26 10:43:22;;;;;;;;;;;;;;;31.17;65.98;99422.38;5073501;28;832;-67
2021/06/26 10:45:50;;;;;;;;;;;;;;;31.37;58.75;99420.88;5073870;28;861;-68
2021/06/26 10:48:17;;;;;;;;;;;;;;;30.66;62.86;99422.75;5073451;28;819;-67
2021/06/26 10:50:48;;;;;;;;;;;;;;;30.55;63.49;99423.78;5073358;28;1890;-68
2021/06/26 10:53:25;;;;;;;;;;;;;;;30.70;63.10;99417.50;5073403;28;534;-68
2021/06/26 10:56:05;;;;;;;;;;;;;;;30.57;62.59;99420.38;5073412;28;869;-67
2021/06/26 10:58:33;;;;;;;;;;;;;;;30.52;63.67;99419.94;5073300;28;876;-67
2021/06/26 11:01:10;;;;;;;;;;;;;;;30.52;65.30;99428.50;5055236;28;1290;-68
2021/06/26 11:03:36;;;;;;;;;;;;;;;30.58;64.26;99419.84;5073299;28;1007;-67
2021/06/26 11:06:12;;;;;;;;;;;;;;;30.53;63.31;99417.84;5073052;28;802;-67
2021/06/26 11:08:39;;;;;;;;;;;;;;;30.80;64.69;99414.94;5072363;28;795;-66
2021/06/26 11:11:05;;;;;;;;;;;;;;;31.06;64.76;99423.41;5072900;28;1949;-66
2021/06/26 11:13:31;;;;;;;;;;;;;;;31.27;62.44;99431.25;5073261;28;914;-66
2021/06/26 11:16:08;;;;;;;;;;;;;;;31.46;63.57;99431.81;5072968;28;814;-66
2021/06/26 11:18:34;;;;;;;;;;;;;;;31.57;63.47;99436.47;5073367;28;1428;-66
2021/06/26 11:21:02;;;;;;;;;;;;;;;31.36;61.43;99433.59;5073521;28;849;-66
2021/06/26 11:23:29;;;;;;;;;;;;;;;30.98;63.12;99428.28;5072924;28;905;-67
2021/06/26 11:26:03;;;;;;;;;;;;;;;30.82;60.04;99427.34;5072874;28;909;-67
2021/06/26 11:28:39;;;;;;;;;;;;;;;30.97;64.12;99420.28;5072668;28;837;-66
2021/06/26 11:31:06;;;;;;;;;;;;;;;31.16;61.91;99420.09;5072507;28;1910;-65
2021/06/26 11:33:33;;;;;;;;;;;;;;;31.28;62.76;99427.06;5072529;28;984;-65
2021/06/26 11:36:00;;;;;;;;;;;;;;;31.14;61.49;99424.25;5072302;28;869;-65
2021/06/26 11:38:27;;;;;;;;;;;;;;;31.12;63.22;99423.28;5072581;28;842;-65
2021/06/26 11:41:03;;;;;;;;;;;;;;;31.31;61.04;99421.00;5072375;28;888;-65
2021/06/26 11:43:31;;;;;;;;;;;;;;;31.64;60.32;99421.47;5072626;28;810;-65
2021/06/26 11:45:57;;;;;;;;;;;;;;;31.84;60.68;99422.78;5072366;28;814;-67
2021/06/26 11:48:24;;;;;;;;;;;;;;;31.88;61.60;99426.06;5054359;28;1223;-66
2021/06/26 11:50:52;;;;;;;;;;;;;;;31.78;62.11;99425.03;5072219;28;1954;-66
2021/06/26 11:53:21;;;;;;;;;;;;;;;31.77;64.72;99422.72;5072156;28;815;-66
2021/06/26 11:56:00;;;;;;;;;;;;;;;32.20;63.19;99424.16;5072166;28;813;-66
2021/06/26 11:58:37;;;;;;;;;;;;;;;32.42;63.13;99419.91;5072089;28;872;-66
2021/06/26 12:01:04;;;;;;;;;;;;;;;32.67;61.99;99418.13;5072064;28;822;-66
2021/06/26 12:03:31;;;;;;;;;;;;;;;32.67;63.42;99417.34;5071993;28;865;-67
2021/06/26 12:06:02;;;;;;;;;;;;;;;32.87;63.34;99419.31;5071839;28;786;-66
2021/06/26 12:08:30;;;;;;;;;;;;;;;33.04;63.54;99401.59;5071969;28;818;-67
2021/06/26 12:10:57;;;;;;;;;;;;;;;33.26;63.46;99400.09;5070546;28;1897;-65
2021/06/26 12:13:23;;;;;;;;;;;;;;;33.09;64.29;99402.78;5072094;28;964;-66
2021/06/26 12:15:50;;;;;;;;;;;;;;;32.97;63.81;99408.09;5071903;28;803;-66
2021/06/26 12:18:16;;;;;;;;;;;;;;;32.67;63.69;99406.66;5071715;28;893;-66
2021/06/26 12:20:43;;;;;;;;;;;;;;;32.79;64.16;99389.91;5071559;28;1323;-67
2021/06/26 12:23:13;;;;;;;;;;;;;;;33.07;64.35;99391.13;5071886;28;794;-66
2021/06/26 12:25:40;;;;;;;;;;;;;;;33.30;64.90;99391.16;5071926;28;880;-66
2021/06/26 12:28:08;;;;;;;;;;;;;;;33.29;64.43;99389.63;5071969;28;850;-67
2021/06/26 12:30:36;;;;;;;;;;;;;;;33.34;64.61;99380.84;5071532;28;1918;-66
2021/06/26 12:33:06;;;;;;;;;;;;;;;33.56;63.33;99387.13;5071636;28;810;-67
2021/06/26 12:35:33;;;;;;;;;;;;;;;33.67;63.32;99378.19;5071415;28;810;-67
2021/06/26 12:38:00;;;;;;;;;;;;;;;33.87;62.73;99370.69;5071583;28;815;-67
2021/06/26 12:40:29;;;;;;;;;;;;;;;34.33;61.77;99382.03;5071481;28;834;-67
2021/06/26 12:42:57;;;;;;;;;;;;;;;34.74;61.23;99377.06;5071877;28;806;-67
2021/06/26 12:45:32;;;;;;;;;;;;;;;34.89;60.08;99375.44;5071574;28;802;-66
2021/06/26 12:48:07;;;;;;;;;;;;;;;34.27;59.21;99367.16;5071508;28;814;-67
2021/06/26 12:50:58;;;;;;;;;;;;;;;33.85;60.47;99361.13;5071453;28;1894;-66
2021/06/26 12:53:40;;;;;;;;;;;;;;;33.16;61.62;99361.94;5071434;28;798;-68
2021/06/26 12:56:11;;;;;;;;;;;;;;;33.21;63.24;99349.53;5071658;28;806;-67
2021/06/26 12:58:58;;;;;;;;;;;;;;;33.76;63.15;99357.53;5071311;28;826;-68
2021/06/26 13:01:41;;;;;;;;;;;;;;;34.42;62.07;99348.31;5071127;28;1148;-67
2021/06/26 13:04:12;;;;;;;;;;;;;;;34.45;61.76;99339.31;5071322;28;798;-67
2021/06/26 13:06:48;;;;;;;;;;;;;;;34.41;61.85;99344.69;5071232;28;917;-67
2021/06/26 13:09:17;;;;;;;;;;;;;;;34.31;62.15;99346.66;5071205;28;1884;-67
2021/06/26 13:11:43;;;;;;;;;;;;;;;34.45;62.64;99347.16;5071249;28;897;-67
2021/06/26 13:14:18;;;;;;;;;;;;;;;34.92;61.55;99343.44;5071680;28;1041;-67
2021/06/26 13:16:46;;;;;;;;;;;;;;;34.93;61.32;99336.38;5071235;28;888;-68
2021/06/26 13:19:14;;;;;;;;;;;;;;;34.91;61.12;99339.06;5071092;28;1272;-67
2021/06/26 13:21:50;;;;;;;;;;;;;;;35.17;59.48;99332.00;5071167;28;825;-67
2021/06/26 13:24:17;;;;;;;;;;;;;;;35.93;58.51;99337.59;5071143;28;893;-67
2021/06/26 13:26:44;;;;;;;;;;;;;;;36.46;57.90;99333.28;5071039;28;810;-67